Time;durP1;ratioP1;P1;durP2;ratioP2;P2;SDS_P1;SDS_P2;PMS_P1;PMS_P2;Temp;Humidity;BMP_temperature;BMP_pressure;BME280_temperature;BME280_humidity;BME280_pressure;Samples;Min_cycle;Max_cycle;Signal;HPM_P1;HPM_P2
2023/09/21 00:03:30;;;;;;;5.38;3.63;;;17.60;99.90;;;;;;5009624;28;20022;-74
2023/09/21 00:05:57;;;;;;;6.55;3.20;;;17.60;99.90;;;;;;5022097;28;20069;-75
2023/09/21 00:08:23;;;;;;;4.57;3.00;;;17.70;99.90;;;;;;4990711;28;20038;-75
2023/09/21 00:10:50;;;;;;;4.88;3.30;;;17.60;99.90;;;;;;4996674;28;20042;-74
2023/09/21 00:13:20;;;;;;;7.25;3.10;;;17.60;99.90;;;;;;5026726;28;20064;-74
2023/09/21 00:15:47;;;;;;;4.75;3.42;;;17.60;99.90;;;;;;5023729;28;20059;-74
2023/09/21 00:18:14;;;;;;;6.20;3.40;;;17.60;99.90;;;;;;5020714;28;20109;-74
2023/09/21 00:20:43;;;;;;;4.65;3.10;;;17.60;99.90;;;;;;5020067;28;20106;-74
2023/09/21 00:23:09;;;;;;;7.07;2.88;;;17.60;99.90;;;;;;5016823;28;20045;-75
2023/09/21 00:25:38;;;;;;;4.88;3.22;;;17.60;99.90;;;;;;4987523;28;20030;-75
2023/09/21 00:28:12;;;;;;;5.05;2.92;;;17.60;99.90;;;;;;5005923;28;20042;-74
2023/09/21 00:30:39;;;;;;;6.88;3.05;;;17.50;99.90;;;;;;5004758;28;20130;-74
2023/09/21 00:33:07;;;;;;;4.13;3.10;;;17.60;99.90;;;;;;5022363;28;20052;-74
2023/09/21 00:35:33;;;;;;;6.13;3.22;;;17.60;99.90;;;;;;5003560;28;20064;-74
2023/09/21 00:38:01;;;;;;;5.63;3.10;;;17.60;99.90;;;;;;5005002;28;20049;-74
2023/09/21 00:40:26;;;;;;;4.80;3.10;;;17.60;99.90;;;;;;5021116;28;20034;-75
2023/09/21 00:42:52;;;;;;;5.82;3.40;;;17.50;99.90;;;;;;5006255;28;20088;-74
2023/09/21 00:45:21;;;;;;;6.47;3.47;;;17.60;99.90;;;;;;5004164;28;20041;-75
2023/09/21 00:47:50;;;;;;;5.82;3.45;;;17.50;99.90;;;;;;4994583;28;20046;-74
2023/09/21 00:50:20;;;;;;;4.90;2.85;;;17.50;99.90;;;;;;5001773;28;20042;-74
2023/09/21 00:52:48;;;;;;;6.95;3.22;;;17.40;99.90;;;;;;4997806;28;20054;-75
2023/09/21 00:55:23;;;;;;;6.65;2.97;;;17.40;99.90;;;;;;4985680;28;20073;-74
2023/09/21 00:57:57;;;;;;;7.43;3.03;;;17.40;99.90;;;;;;5002688;28;20509;-74
2023/09/21 01:00:28;;;;;;;5.03;3.00;;;17.40;99.90;;;;;;4986576;28;20038;-74
2023/09/21 01:02:57;;;;;;;5.78;3.42;;;17.30;99.90;;;;;;5001924;28;20049;-74
2023/09/21 01:05:23;;;;;;;7.57;3.30;;;17.30;99.90;;;;;;5002451;28;20525;-74
2023/09/21 01:07:50;;;;;;;4.65;3.30;;;17.40;99.90;;;;;;5000168;28;20042;-74
2023/09/21 01:10:19;;;;;;;4.47;3.15;;;17.40;99.90;;;;;;4985935;28;20037;-74
2023/09/21 01:12:49;;;;;;;6.82;3.30;;;17.40;99.90;;;;;;4966561;28;20043;-74
2023/09/21 01:15:15;;;;;;;5.32;3.13;;;17.30;99.90;;;;;;5004988;28;20046;-74
2023/09/21 01:17:41;;;;;;;4.85;3.00;;;17.30;99.90;;;;;;4999650;28;20096;-75
2023/09/21 01:20:29;;;;;;;4.65;3.13;;;17.30;99.90;;;;;;4999670;28;20038;-74
2023/09/21 01:23:03;;;;;;;4.10;3.10;;;17.30;99.90;;;;;;5000351;28;20030;-74
2023/09/21 01:25:29;;;;;;;4.75;3.10;;;17.30;99.90;;;;;;4999980;28;20034;-74
2023/09/21 01:27:55;;;;;;;5.63;3.05;;;17.20;99.90;;;;;;4967865;28;20554;-74
2023/09/21 01:30:22;;;;;;;4.22;2.95;;;17.20;99.90;;;;;;4986063;28;20061;-75
2023/09/21 01:32:48;;;;;;;4.22;2.88;;;17.20;99.90;;;;;;4952197;28;20038;-74
2023/09/21 01:35:16;;;;;;;4.00;2.97;;;17.20;99.90;;;;;;5002531;28;20175;-74
2023/09/21 01:37:41;;;;;;;4.85;3.05;;;17.10;99.90;;;;;;4985574;28;20046;-74
2023/09/21 01:40:15;;;;;;;4.57;3.42;;;17.10;99.90;;;;;;4968372;28;20108;-75
2023/09/21 01:42:41;;;;;;;4.55;2.83;;;17.10;99.90;;;;;;4997594;28;20049;-74
2023/09/21 01:45:13;;;;;;;5.30;2.70;;;17.10;99.90;;;;;;4966691;28;20508;-75
2023/09/21 01:47:39;;;;;;;4.03;2.92;;;17.10;99.90;;;;;;4984499;28;20038;-74
2023/09/21 01:50:11;;;;;;;5.15;2.78;;;17.10;99.90;;;;;;5000117;28;20506;-75
2023/09/21 01:52:38;;;;;;;3.55;2.70;;;17.00;99.90;;;;;;4987269;28;20089;-74
2023/09/21 01:55:10;;;;;;;5.15;3.00;;;17.10;99.90;;;;;;4998684;28;20045;-74
2023/09/21 01:57:36;;;;;;;5.72;2.85;;;17.10;99.90;;;;;;4996937;28;20184;-74
2023/09/21 02:00:13;;;;;;;5.63;2.80;;;17.10;99.90;;;;;;4983683;28;20054;-74
2023/09/21 02:02:39;;;;;;;4.47;2.90;;;17.10;99.90;;;;;;4985346;28;20042;-74
2023/09/21 02:05:10;;;;;;;4.47;3.10;;;17.10;99.90;;;;;;4983060;28;20049;-75
2023/09/21 02:07:36;;;;;;;4.63;2.60;;;17.00;99.90;;;;;;4983353;28;20046;-75
2023/09/21 02:10:03;;;;;;;5.60;3.00;;;17.10;99.90;;;;;;4979234;28;20042;-74
2023/09/21 02:12:35;;;;;;;5.88;2.78;;;17.30;99.90;;;;;;4982812;28;20460;-75
2023/09/21 02:15:01;;;;;;;5.35;2.85;;;17.10;99.90;;;;;;4986087;28;20523;-75
2023/09/21 02:17:27;;;;;;;3.67;2.60;;;17.00;99.90;;;;;;4984901;28;20042;-74
2023/09/21 02:19:53;;;;;;;4.28;2.80;;;17.00;99.90;;;;;;4984938;28;20112;-75
2023/09/21 02:22:20;;;;;;;4.55;2.70;;;17.10;99.90;;;;;;4982558;28;20713;-75
2023/09/21 02:24:46;;;;;;;4.30;2.95;;;17.00;99.90;;;;;;4985027;28;20060;-74
2023/09/21 02:27:12;;;;;;;5.18;2.83;;;17.10;99.90;;;;;;4985269;28;20046;-74
2023/09/21 02:29:40;;;;;;;3.20;2.42;;;17.10;99.90;;;;;;4999471;28;20030;-74
2023/09/21 02:32:07;;;;;;;5.40;2.80;;;17.10;99.90;;;;;;4997846;28;20037;-74
2023/09/21 02:34:33;;;;;;;4.50;2.58;;;17.10;99.90;;;;;;4982900;28;20428;-74
2023/09/21 02:37:01;;;;;;;4.40;2.90;;;17.10;99.90;;;;;;4969099;28;20030;-74
2023/09/21 02:39:28;;;;;;;4.43;2.85;;;17.20;99.90;;;;;;4964806;28;20104;-75
2023/09/21 02:41:53;;;;;;;4.15;3.08;;;17.20;99.90;;;;;;5001888;28;20049;-74
2023/09/21 02:44:19;;;;;;;4.07;2.83;;;17.10;99.90;;;;;;4970481;28;20385;-74
2023/09/21 02:46:45;;;;;;;4.20;2.97;;;17.20;99.90;;;;;;5003194;28;20135;-75
2023/09/21 02:49:11;;;;;;;3.78;2.85;;;17.20;99.90;;;;;;4968519;28;20038;-74
2023/09/21 02:51:38;;;;;;;8.65;3.00;;;17.20;99.90;;;;;;4986867;28;20037;-75
2023/09/21 02:54:07;;;;;;;5.72;2.90;;;17.20;99.90;;;;;;4972853;28;20038;-75
2023/09/21 02:56:33;;;;;;;3.75;2.67;;;17.20;99.90;;;;;;4990840;28;20500;-74
2023/09/21 02:59:00;;;;;;;6.78;3.15;;;17.10;99.90;;;;;;4989488;28;20392;-75
2023/09/21 03:01:25;;;;;;;4.72;2.92;;;17.20;99.90;;;;;;4995027;28;20179;-74
2023/09/21 03:03:51;;;;;;;3.30;2.75;;;17.10;99.90;;;;;;4989458;28;20488;-74
2023/09/21 03:06:19;;;;;;;5.10;2.88;;;17.10;99.90;;;;;;4989856;28;20038;-75
2023/09/21 03:08:46;;;;;;;5.03;2.60;;;17.10;99.90;;;;;;4991204;28;20612;-75
2023/09/21 03:11:12;;;;;;;2.95;2.50;;;17.10;99.90;;;;;;4990147;28;20042;-75
2023/09/21 03:13:38;;;;;;;4.47;2.80;;;17.10;99.90;;;;;;4989032;28;20053;-74
2023/09/21 03:16:10;;;;;;;3.83;2.70;;;17.10;99.90;;;;;;5003256;28;20046;-75
2023/09/21 03:18:36;;;;;;;3.00;2.65;;;17.10;99.90;;;;;;4972567;28;20040;-74
2023/09/21 03:21:09;;;;;;;3.08;2.72;;;17.10;99.90;;;;;;4956410;28;20038;-74
2023/09/21 03:23:35;;;;;;;5.32;2.72;;;17.00;99.90;;;;;;4990687;28;20041;-75
2023/09/21 03:26:01;;;;;;;5.45;3.10;;;17.00;99.90;;;;;;5007309;28;20046;-74
2023/09/21 03:28:28;;;;;;;3.13;2.70;;;17.00;99.90;;;;;;4989663;28;20046;-75
2023/09/21 03:30:56;;;;;;;4.05;3.10;;;16.90;99.90;;;;;;4985516;28;20046;-75
2023/09/21 03:33:22;;;;;;;4.25;2.78;;;16.90;99.90;;;;;;4989376;28;20041;-75
2023/09/21 03:35:49;;;;;;;3.20;2.58;;;16.90;99.90;;;;;;4988689;28;20026;-75
2023/09/21 03:38:21;;;;;;;4.88;3.00;;;16.80;99.90;;;;;;5001051;28;20411;-75
2023/09/21 03:40:50;;;;;;;4.63;2.63;;;16.80;99.90;;;;;;4988806;28;20057;-75
2023/09/21 03:43:18;;;;;;;3.75;2.70;;;16.70;99.90;;;;;;5003717;28;20056;-75
2023/09/21 03:45:44;;;;;;;4.55;2.92;;;16.70;99.90;;;;;;4993648;28;20052;-75
2023/09/21 03:48:11;;;;;;;4.60;2.60;;;16.70;99.90;;;;;;4988868;28;20076;-75
2023/09/21 03:50:38;;;;;;;7.88;2.90;;;16.70;99.90;;;;;;5005606;28;20045;-74
2023/09/21 03:53:05;;;;;;;5.47;2.63;;;16.70;99.90;;;;;;5002523;28;20077;-75
2023/09/21 03:55:34;;;;;;;5.43;2.80;;;16.70;99.90;;;;;;4988890;28;20045;-74
2023/09/21 03:58:00;;;;;;;3.47;2.60;;;16.70;99.90;;;;;;4989141;28;20040;-75
2023/09/21 04:00:29;;;;;;;3.78;2.65;;;16.60;99.90;;;;;;5006781;28;20046;-74
2023/09/21 04:02:59;;;;;;;5.30;2.55;;;16.70;99.90;;;;;;5004308;28;20572;-74
2023/09/21 04:05:35;;;;;;;5.18;2.90;;;16.70;99.90;;;;;;4990885;28;20053;-74
2023/09/21 04:08:05;;;;;;;3.78;2.80;;;16.60;99.90;;;;;;4988913;28;20066;-75
2023/09/21 04:10:31;;;;;;;3.67;2.60;;;16.60;99.90;;;;;;4988439;28;20496;-75
2023/09/21 04:12:57;;;;;;;4.88;2.95;;;16.60;99.90;;;;;;4973700;28;21931;-75
2023/09/21 04:15:25;;;;;;;5.70;2.95;;;16.60;99.90;;;;;;4983692;28;20121;-74
2023/09/21 04:17:51;;;;;;;4.82;2.60;;;16.50;99.90;;;;;;5002094;28;20038;-74
2023/09/21 04:20:18;;;;;;;5.13;2.80;;;16.50;99.90;;;;;;4972293;28;20124;-74
2023/09/21 04:22:45;;;;;;;4.25;2.90;;;16.50;99.90;;;;;;5001144;28;20137;-74
2023/09/21 04:25:14;;;;;;;2.92;2.30;;;16.50;99.90;;;;;;5006991;28;20053;-74
2023/09/21 04:27:57;;;;;;;5.28;2.90;;;16.50;99.90;;;;;;4991001;28;20121;-74
2023/09/21 04:30:24;;;;;;;3.22;2.85;;;16.50;99.90;;;;;;4986918;28;20033;-75
2023/09/21 04:32:50;;;;;;;3.97;2.58;;;16.40;99.90;;;;;;4969574;28;20042;-74
2023/09/21 04:35:18;;;;;;;4.25;2.60;;;16.40;99.90;;;;;;4982545;28;20153;-74
2023/09/21 04:37:47;;;;;;;4.32;2.92;;;16.40;99.90;;;;;;5002654;28;20493;-74
2023/09/21 04:40:13;;;;;;;4.35;2.50;;;16.40;99.90;;;;;;5000162;28;20407;-74
2023/09/21 04:42:47;;;;;;;5.00;2.75;;;16.40;99.90;;;;;;4987858;28;20061;-74
2023/09/21 04:45:15;;;;;;;5.55;3.17;;;16.40;99.90;;;;;;4997810;28;20053;-74
2023/09/21 04:47:47;;;;;;;5.47;3.20;;;16.30;99.90;;;;;;4986361;28;20038;-74
2023/09/21 04:50:17;;;;;;;5.30;3.05;;;16.30;99.90;;;;;;4989072;28;20046;-74
2023/09/21 04:52:44;;;;;;;4.90;2.75;;;16.30;99.90;;;;;;5002453;28;20081;-74
2023/09/21 04:55:10;;;;;;;5.60;2.67;;;16.20;99.90;;;;;;4970556;28;20037;-74
2023/09/21 04:57:36;;;;;;;6.47;3.08;;;16.20;99.90;;;;;;4988364;28;20040;-74
2023/09/21 05:00:10;;;;;;;4.55;2.70;;;16.20;99.90;;;;;;4987158;28;20049;-74
2023/09/21 05:02:36;;;;;;;4.45;2.90;;;16.20;99.90;;;;;;4970148;28;20046;-74
2023/09/21 05:05:02;;;;;;;6.03;3.17;;;16.20;99.90;;;;;;5001758;28;20038;-74
2023/09/21 05:07:28;;;;;;;4.03;2.67;;;16.10;99.90;;;;;;5002095;28;20035;-74
2023/09/21 05:09:54;;;;;;;4.13;3.00;;;16.10;99.90;;;;;;5003667;28;20570;-74
2023/09/21 05:12:20;;;;;;;6.07;3.30;;;16.20;99.90;;;;;;5006741;28;20069;-74
2023/09/21 05:14:47;;;;;;;5.43;3.10;;;16.20;99.90;;;;;;5003360;28;20428;-74
2023/09/21 05:17:14;;;;;;;3.72;2.60;;;16.20;99.90;;;;;;4989385;28;20460;-74
2023/09/21 05:19:41;;;;;;;3.53;2.78;;;16.20;99.90;;;;;;4968633;28;20410;-74
2023/09/21 05:22:09;;;;;;;4.72;2.45;;;16.20;99.90;;;;;;4986422;28;20045;-74
2023/09/21 05:24:36;;;;;;;4.03;2.88;;;16.30;99.90;;;;;;5000396;28;20124;-74
2023/09/21 05:27:02;;;;;;;3.38;2.85;;;16.30;99.90;;;;;;4984915;28;20035;-74
2023/09/21 05:29:28;;;;;;;3.90;3.10;;;16.30;99.90;;;;;;4999853;28;20040;-74
2023/09/21 05:31:54;;;;;;;3.40;3.05;;;16.20;99.90;;;;;;4998125;28;20041;-74
2023/09/21 05:34:20;;;;;;;5.80;2.80;;;16.30;99.90;;;;;;4999725;28;20096;-74
2023/09/21 05:36:47;;;;;;;6.30;3.08;;;16.30;99.90;;;;;;4987373;28;20192;-74
2023/09/21 05:39:16;;;;;;;6.00;2.75;;;16.40;99.90;;;;;;4993445;28;20525;-74
2023/09/21 05:41:52;;;;;;;5.63;2.72;;;16.40;99.90;;;;;;4988349;28;20050;-74
2023/09/21 05:44:21;;;;;;;4.70;2.80;;;16.40;99.90;;;;;;5000184;28;20038;-74
2023/09/21 05:46:49;;;;;;;3.42;2.83;;;16.40;99.90;;;;;;4994436;28;20034;-73
2023/09/21 05:49:22;;;;;;;5.03;2.80;;;16.40;99.90;;;;;;4993767;28;20048;-74
2023/09/21 05:51:56;;;;;;;5.72;3.03;;;16.40;99.90;;;;;;4981413;28;20042;-74
2023/09/21 05:54:23;;;;;;;4.53;2.72;;;16.50;99.90;;;;;;5009799;28;20057;-74
2023/09/21 05:56:50;;;;;;;4.35;2.97;;;16.50;99.90;;;;;;5004526;28;20049;-74
2023/09/21 05:59:17;;;;;;;4.50;2.75;;;16.50;99.90;;;;;;5004956;28;20044;-74
2023/09/21 06:01:43;;;;;;;4.00;2.88;;;16.60;99.90;;;;;;4972508;28;20046;-74
2023/09/21 06:04:12;;;;;;;2.72;2.50;;;16.60;99.90;;;;;;5003437;28;20042;-74
2023/09/21 06:06:38;;;;;;;3.25;2.53;;;16.70;99.90;;;;;;4975269;28;20038;-74
2023/09/21 06:09:07;;;;;;;3.85;2.75;;;16.80;99.90;;;;;;4984763;28;20465;-74
2023/09/21 06:11:32;;;;;;;4.05;2.42;;;16.90;99.90;;;;;;4999278;28;20085;-74
2023/09/21 06:13:58;;;;;;;3.83;2.30;;;16.90;99.90;;;;;;4999440;28;20081;-74
2023/09/21 06:16:24;;;;;;;4.40;2.70;;;17.00;99.90;;;;;;4949976;28;20046;-75
2023/09/21 06:18:49;;;;;;;3.88;2.70;;;17.10;99.90;;;;;;5001347;28;20085;-75
2023/09/21 06:21:18;;;;;;;4.25;2.72;;;17.20;99.90;;;;;;5003388;28;20105;-75
2023/09/21 06:23:44;;;;;;;3.45;2.83;;;17.30;99.90;;;;;;4966714;28;20049;-74
2023/09/21 06:26:16;;;;;;;4.30;2.78;;;17.30;99.90;;;;;;4983864;28;20038;-75
2023/09/21 06:28:47;;;;;;;5.38;3.30;;;17.40;99.90;;;;;;4981021;28;20042;-75
2023/09/21 06:31:13;;;;;;;4.10;2.60;;;17.50;99.90;;;;;;4987576;28;20100;-74
2023/09/21 06:33:40;;;;;;;4.72;2.90;;;17.50;99.90;;;;;;4971285;28;20532;-75
2023/09/21 06:36:14;;;;;;;4.30;2.92;;;17.50;99.90;;;;;;4979554;28;20042;-74
2023/09/21 06:38:42;;;;;;;4.88;2.40;;;17.60;99.90;;;;;;4970141;28;20048;-75
2023/09/21 06:41:08;;;;;;;4.60;2.80;;;17.60;99.90;;;;;;4989234;28;20041;-74
2023/09/21 06:43:36;;;;;;;4.35;2.75;;;17.70;99.90;;;;;;4971512;28;20049;-74
2023/09/21 06:46:02;;;;;;;5.70;2.80;;;17.80;99.90;;;;;;4960305;28;20072;-74
2023/09/21 06:48:27;;;;;;;5.90;2.72;;;17.90;99.90;;;;;;4989464;28;20130;-79
2023/09/21 06:50:53;;;;;;;4.85;3.05;;;17.90;99.90;;;;;;4972937;28;20133;-74
2023/09/21 06:53:19;;;;;;;5.22;2.90;;;18.00;99.90;;;;;;4971065;28;20076;-74
2023/09/21 06:55:45;;;;;;;4.57;2.55;;;18.00;99.90;;;;;;4974327;28;20164;-74
2023/09/21 06:58:11;;;;;;;5.00;3.10;;;18.00;99.90;;;;;;4986767;28;20573;-74
2023/09/21 07:00:37;;;;;;;3.65;2.53;;;18.00;99.90;;;;;;4971890;28;20038;-74
2023/09/21 07:03:03;;;;;;;4.53;2.95;;;18.00;99.90;;;;;;4988619;28;20052;-74
2023/09/21 07:05:29;;;;;;;3.72;2.97;;;18.00;99.90;;;;;;4972147;28;20044;-75
2023/09/21 07:07:54;;;;;;;4.15;2.80;;;18.10;99.90;;;;;;4990083;28;20493;-74
2023/09/21 07:10:20;;;;;;;4.38;2.72;;;18.10;99.90;;;;;;4970631;28;21100;-75
2023/09/21 07:12:46;;;;;;;3.25;2.90;;;18.10;99.90;;;;;;4945653;28;20218;-75
2023/09/21 07:15:12;;;;;;;3.10;2.78;;;18.20;99.90;;;;;;4974838;28;20050;-75
2023/09/21 07:17:37;;;;;;;4.70;2.90;;;18.20;99.90;;;;;;4973103;28;20042;-74
2023/09/21 07:20:06;;;;;;;3.40;2.70;;;18.30;99.90;;;;;;4962843;28;20050;-75
2023/09/21 07:22:33;;;;;;;4.82;3.10;;;18.30;99.90;;;;;;4988903;28;20074;-75
2023/09/21 07:25:00;;;;;;;6.00;2.92;;;18.30;99.90;;;;;;4986506;28;20076;-75
2023/09/21 07:27:25;;;;;;;5.03;2.88;;;18.30;99.90;;;;;;4965473;28;20497;-74
2023/09/21 07:29:53;;;;;;;4.75;2.83;;;18.40;99.90;;;;;;4969581;28;20127;-75
2023/09/21 07:32:20;;;;;;;3.90;2.97;;;18.50;99.90;;;;;;4966688;28;20649;-75
2023/09/21 07:34:48;;;;;;;4.85;2.50;;;18.40;99.90;;;;;;4967074;28;20042;-75
2023/09/21 07:37:16;;;;;;;5.43;2.53;;;18.50;99.90;;;;;;4969735;28;20409;-75
2023/09/21 07:39:42;;;;;;;6.28;2.97;;;18.50;99.90;;;;;;4973090;28;20046;-74
2023/09/21 07:42:07;;;;;;;3.67;2.75;;;18.50;99.90;;;;;;4964422;28;20053;-76
2023/09/21 07:44:33;;;;;;;4.88;2.72;;;18.50;99.90;;;;;;4972078;28;20030;-76
2023/09/21 07:46:59;;;;;;;4.53;2.92;;;18.50;99.90;;;;;;4972247;28;20097;-75
2023/09/21 07:49:25;;;;;;;5.20;3.03;;;18.50;99.90;;;;;;4970539;28;20552;-75
2023/09/21 07:51:52;;;;;;;3.00;2.58;;;18.60;99.90;;;;;;4963170;28;20038;-74
2023/09/21 07:54:18;;;;;;;7.40;3.00;;;18.60;99.90;;;;;;5007670;28;20642;-74
2023/09/21 07:56:43;;;;;;;4.30;2.58;;;18.60;99.90;;;;;;4975214;28;20046;-74
2023/09/21 07:59:12;;;;;;;3.55;2.65;;;18.70;99.90;;;;;;4966671;28;20040;-75
2023/09/21 08:01:37;;;;;;;4.38;2.60;;;18.70;99.90;;;;;;4972738;28;20421;-74
2023/09/21 08:04:03;;;;;;;5.28;2.75;;;18.80;99.90;;;;;;4968985;28;20030;-74
2023/09/21 08:06:29;;;;;;;4.30;2.95;;;18.90;99.90;;;;;;4986177;28;20041;-75
2023/09/21 08:08:57;;;;;;;5.15;2.78;;;19.00;99.90;;;;;;4959979;28;20049;-74
2023/09/21 08:11:23;;;;;;;5.75;2.70;;;19.10;99.90;;;;;;4970467;28;20464;-74
2023/09/21 08:13:49;;;;;;;5.45;2.97;;;19.10;99.90;;;;;;4971302;28;20569;-76
2023/09/21 08:16:15;;;;;;;11.07;2.90;;;19.20;99.90;;;;;;4988372;28;20132;-74
2023/09/21 08:18:41;;;;;;;5.03;2.88;;;19.20;99.90;;;;;;4968378;28;20093;-74
2023/09/21 08:21:09;;;;;;;5.03;3.05;;;19.20;99.90;;;;;;4971149;28;20396;-75
2023/09/21 08:23:36;;;;;;;5.95;3.30;;;19.20;99.90;;;;;;4985880;28;20136;-73
2023/09/21 08:26:02;;;;;;;3.47;2.85;;;19.40;99.90;;;;;;4959227;28;20037;-73
2023/09/21 08:28:29;;;;;;;5.40;3.92;;;19.20;99.90;;;;;;4969870;28;20612;-74
2023/09/21 08:30:56;;;;;;;6.05;2.97;;;19.20;99.90;;;;;;4962477;28;20041;-74
2023/09/21 08:33:22;;;;;;;5.03;3.22;;;19.20;99.90;;;;;;4959753;28;20045;-74
2023/09/21 08:35:48;;;;;;;6.18;2.97;;;19.30;99.90;;;;;;4986870;28;20053;-74
2023/09/21 08:38:14;;;;;;;4.20;2.53;;;19.20;99.90;;;;;;4970058;28;20050;-74
2023/09/21 08:40:47;;;;;;;3.97;2.90;;;19.30;99.90;;;;;;4989610;28;20049;-75
2023/09/21 08:43:22;;;;;;;5.88;2.88;;;19.30;99.90;;;;;;4989480;28;20042;-75
2023/09/21 08:45:50;;;;;;;6.95;3.13;;;19.40;99.90;;;;;;4985608;28;20541;-75
2023/09/21 08:48:20;;;;;;;5.10;3.10;;;19.40;99.90;;;;;;4970239;28;20045;-75
2023/09/21 08:50:49;;;;;;;5.07;2.95;;;19.40;99.90;;;;;;4987992;28;20051;-75
2023/09/21 08:53:19;;;;;;;4.65;2.80;;;19.50;99.90;;;;;;4971573;28;20064;-75
2023/09/21 08:55:48;;;;;;;7.10;3.30;;;19.50;99.90;;;;;;4968984;28;21120;-75
2023/09/21 08:58:20;;;;;;;4.60;3.10;;;19.50;99.90;;;;;;4958572;28;20050;-75
2023/09/21 09:00:47;;;;;;;4.65;2.80;;;19.50;99.90;;;;;;4969753;28;20381;-73
2023/09/21 09:03:14;;;;;;;4.30;2.80;;;19.50;99.90;;;;;;4984986;28;20396;-74
2023/09/21 09:05:40;;;;;;;5.25;2.97;;;19.40;99.90;;;;;;4984690;28;20048;-74
2023/09/21 09:08:06;;;;;;;5.15;2.92;;;19.40;99.90;;;;;;4962628;28;20038;-74
2023/09/21 09:10:40;;;;;;;5.07;2.92;;;19.30;99.90;;;;;;4967463;28;20062;-74
2023/09/21 09:13:06;;;;;;;4.13;2.80;;;19.30;99.90;;;;;;4985599;28;20137;-74
2023/09/21 09:15:37;;;;;;;4.65;2.65;;;19.30;99.90;;;;;;4969640;28;20580;-73
2023/09/21 09:18:04;;;;;;;4.60;2.90;;;19.20;99.90;;;;;;4970009;28;20054;-72
2023/09/21 09:20:30;;;;;;;3.65;2.72;;;19.10;99.90;;;;;;4985425;28;20631;-80
2023/09/21 09:22:56;;;;;;;4.10;2.92;;;19.10;99.90;;;;;;4968723;28;20038;-74
2023/09/21 09:25:23;;;;;;;4.60;2.88;;;19.00;99.90;;;;;;4968199;28;20026;-74
2023/09/21 09:27:49;;;;;;;4.28;3.10;;;19.00;99.90;;;;;;4969815;28;20050;-73
2023/09/21 09:30:16;;;;;;;8.05;2.88;;;18.90;99.90;;;;;;4987037;28;21035;-73
2023/09/21 09:32:42;;;;;;;4.93;3.25;;;18.80;99.90;;;;;;4985424;28;20048;-73
2023/09/21 09:35:12;;;;;;;5.35;3.13;;;18.80;99.90;;;;;;4986934;28;20050;-74
2023/09/21 09:37:46;;;;;;;5.18;3.28;;;18.70;99.90;;;;;;4985696;28;20498;-74
2023/09/21 09:40:14;;;;;;;5.80;3.75;;;18.60;99.90;;;;;;4969366;28;20073;-74
2023/09/21 09:42:41;;;;;;;6.65;3.67;;;18.50;99.90;;;;;;4969874;28;20156;-74
2023/09/21 09:45:16;;;;;;;4.13;3.42;;;18.50;99.90;;;;;;4967002;28;20069;-74
2023/09/21 09:47:45;;;;;;;6.72;3.67;;;18.40;99.90;;;;;;4983049;28;20065;-74
2023/09/21 09:50:13;;;;;;;4.35;3.58;;;18.40;99.90;;;;;;4984104;28;20046;-74
2023/09/21 09:52:43;;;;;;;4.18;3.20;;;18.30;99.90;;;;;;4969039;28;20045;-74
2023/09/21 09:55:12;;;;;;;5.25;3.45;;;18.30;99.90;;;;;;4968811;28;20120;-74
2023/09/21 09:57:41;;;;;;;4.65;3.72;;;18.20;99.90;;;;;;4982961;28;20615;-74
2023/09/21 10:00:15;;;;;;;5.65;3.67;;;18.10;99.90;;;;;;4960084;28;20398;-74
2023/09/21 10:02:44;;;;;;;4.93;3.67;;;18.10;99.90;;;;;;4947110;28;20121;-75
2023/09/21 10:05:12;;;;;;;6.95;3.22;;;18.20;99.90;;;;;;4969085;28;20045;-74
2023/09/21 10:07:38;;;;;;;6.82;3.42;;;18.20;99.90;;;;;;4960682;28;20085;-74
2023/09/21 10:10:04;;;;;;;4.32;3.70;;;18.10;99.90;;;;;;4986705;28;20048;-74
2023/09/21 10:12:32;;;;;;;4.13;3.47;;;18.20;99.90;;;;;;4960989;28;20073;-74
2023/09/21 10:14:57;;;;;;;5.38;3.70;;;18.20;99.90;;;;;;4986378;28;20062;-74
2023/09/21 10:17:24;;;;;;;4.13;3.53;;;18.20;99.90;;;;;;4961468;28;20049;-74
2023/09/21 10:19:49;;;;;;;6.57;3.53;;;18.10;99.90;;;;;;4987289;28;20136;-74
2023/09/21 10:22:26;;;;;;;6.10;3.60;;;18.10;99.90;;;;;;4970148;28;20065;-74
2023/09/21 10:24:58;;;;;;;5.68;3.60;;;18.00;99.90;;;;;;4986147;28;20419;-74
2023/09/21 10:27:33;;;;;;;6.82;3.60;;;18.00;99.90;;;;;;4986037;28;20464;-75
2023/09/21 10:30:06;;;;;;;4.28;3.75;;;18.00;99.90;;;;;;4983653;28;20112;-75
2023/09/21 10:32:48;;;;;;;4.30;3.63;;;18.00;99.90;;;;;;4985326;28;20045;-74
2023/09/21 10:35:42;;;;;;;4.47;4.00;;;18.00;99.90;;;;;;4960270;28;20117;-74
2023/09/21 10:38:15;;;;;;;5.15;4.18;;;17.90;99.90;;;;;;4968561;28;20054;-74
2023/09/21 10:40:41;;;;;;;7.07;4.28;;;17.90;99.90;;;;;;4970978;28;20057;-73
2023/09/21 10:43:37;;;;;;;9.05;4.53;;;17.90;99.90;;;;;;4972349;28;20493;-75
2023/09/21 10:46:17;;;;;;;6.85;4.53;;;17.90;99.90;;;;;;4973264;28;20133;-76
2023/09/21 10:48:47;;;;;;;5.97;4.30;;;17.90;99.90;;;;;;4962150;28;20056;-75
2023/09/21 10:51:13;;;;;;;7.93;4.82;;;17.80;99.90;;;;;;4977422;28;20049;-75
2023/09/21 10:53:38;;;;;;;14.63;5.43;;;17.80;99.90;;;;;;4981725;28;20090;-74
2023/09/21 10:56:05;;;;;;;7.55;5.43;;;17.80;99.90;;;;;;4958399;28;20061;-75
2023/09/21 10:58:34;;;;;;;11.18;5.32;;;17.80;99.90;;;;;;4968968;28;20041;-74
2023/09/21 11:01:00;;;;;;;9.88;5.40;;;17.80;99.90;;;;;;4986836;28;20042;-78
2023/09/21 11:03:35;;;;;;;5.78;4.90;;;17.80;99.90;;;;;;4969589;28;20049;-74
2023/09/21 11:06:01;;;;;;;7.07;4.72;;;17.90;99.90;;;;;;4967712;28;20046;-74
2023/09/21 11:08:26;;;;;;;8.48;5.30;;;17.90;99.90;;;;;;4970182;28;20104;-73
2023/09/21 11:10:53;;;;;;;8.40;5.05;;;17.90;99.90;;;;;;4966716;28;20183;-74
2023/09/21 11:13:18;;;;;;;7.15;4.47;;;17.90;99.90;;;;;;4971687;28;20068;-74
2023/09/21 11:15:45;;;;;;;7.88;5.20;;;18.00;99.90;;;;;;4975016;28;20062;-73
2023/09/21 11:18:11;;;;;;;7.35;4.95;;;18.00;99.90;;;;;;4961867;28;20050;-74
2023/09/21 11:20:37;;;;;;;6.72;5.05;;;18.10;99.90;;;;;;4971102;28;20041;-74
2023/09/21 11:23:03;;;;;;;6.90;4.45;;;18.10;99.90;;;;;;4971444;28;20095;-74
2023/09/21 11:25:29;;;;;;;11.20;4.80;;;18.10;99.90;;;;;;4970115;28;20122;-74
2023/09/21 11:27:56;;;;;;;9.57;5.03;;;18.10;99.90;;;;;;4988502;28;20034;-74
2023/09/21 11:30:22;;;;;;;7.38;5.00;;;18.20;99.90;;;;;;4986745;28;20049;-74
2023/09/21 11:32:52;;;;;;;7.40;5.20;;;18.10;99.90;;;;;;4970033;28;20042;-74
2023/09/21 11:35:19;;;;;;;6.95;5.45;;;18.20;99.90;;;;;;4987027;28;20049;-75
2023/09/21 11:37:47;;;;;;;7.53;5.22;;;18.20;99.90;;;;;;4982709;28;20445;-75
2023/09/21 11:40:14;;;;;;;9.13;5.93;;;18.20;99.90;;;;;;4987037;28;20612;-74
2023/09/21 11:42:46;;;;;;;8.45;5.82;;;18.20;99.90;;;;;;5009926;28;20145;-75
2023/09/21 11:45:24;;;;;;;7.60;5.72;;;18.20;99.90;;;;;;5003220;28;20415;-75
2023/09/21 11:47:59;;;;;;;6.00;5.40;;;18.20;99.90;;;;;;5009439;28;20042;-75
2023/09/21 11:50:25;;;;;;;6.82;5.65;;;18.10;99.90;;;;;;4987615;28;20497;-75
2023/09/21 11:52:56;;;;;;;6.75;5.65;;;18.00;99.90;;;;;;4979690;28;20544;-75
2023/09/21 11:55:32;;;;;;;6.95;5.10;;;18.00;99.90;;;;;;4999207;28;20031;-75
2023/09/21 11:58:12;;;;;;;5.15;4.45;;;18.00;99.90;;;;;;5012683;28;20041;-75
2023/09/21 12:01:24;;;;;;;8.30;4.18;;;17.90;99.90;;;;;;4989133;28;20033;-75
2023/09/21 12:03:25;;;;;;;4.85;3.88;;;17.80;99.90;;;;;;4987781;28;20469;-75
2023/09/21 12:05:51;;;;;;;5.22;3.67;;;17.70;99.90;;;;;;4996829;28;20116;-75
2023/09/21 12:08:19;;;;;;;4.85;3.63;;;17.80;99.90;;;;;;4982231;28;20045;-75
2023/09/21 12:10:48;;;;;;;4.97;3.83;;;18.00;99.90;;;;;;4985922;28;20405;-75
2023/09/21 12:13:17;;;;;;;3.92;3.30;;;17.90;99.90;;;;;;5005023;28;20072;-75
2023/09/21 12:15:43;;;;;;;5.25;3.10;;;18.00;99.90;;;;;;4978218;28;20463;-75
2023/09/21 12:18:12;;;;;;;3.50;3.10;;;18.00;99.90;;;;;;5010714;28;20038;-75
2023/09/21 12:20:42;;;;;;;3.95;3.00;;;18.10;99.90;;;;;;4987916;28;20477;-75
2023/09/21 12:23:09;;;;;;;4.03;3.10;;;18.10;99.90;;;;;;4986491;28;20382;-75
2023/09/21 12:25:35;;;;;;;3.33;3.03;;;18.10;99.90;;;;;;5014515;28;20042;-75
2023/09/21 12:28:01;;;;;;;4.68;2.63;;;18.20;99.90;;;;;;5024923;28;20060;-75
2023/09/21 12:30:29;;;;;;;3.83;3.33;;;18.40;99.90;;;;;;5006858;28;20070;-75
2023/09/21 12:32:56;;;;;;;5.13;3.35;;;18.50;99.90;;;;;;5000999;28;20030;-74
2023/09/21 12:35:25;;;;;;;3.70;3.33;;;18.70;99.90;;;;;;4995634;28;20106;-75
2023/09/21 12:37:51;;;;;;;5.47;3.35;;;18.80;99.90;;;;;;5018595;28;20102;-75
2023/09/21 12:40:17;;;;;;;5.07;3.58;;;18.80;99.90;;;;;;5016297;28;20042;-75
2023/09/21 12:42:45;;;;;;;3.50;3.20;;;18.80;99.90;;;;;;4998309;28;20042;-77
2023/09/21 12:45:17;;;;;;;5.47;4.38;;;18.60;99.90;;;;;;5011173;28;20038;-77
2023/09/21 12:47:44;;;;;;;10.55;7.45;;;18.50;99.90;;;;;;5003220;28;20126;-78
2023/09/21 12:50:12;;;;;;;10.02;7.50;;;18.40;99.90;;;;;;4985036;28;20469;-78
2023/09/21 12:52:40;;;;;;;5.22;3.90;;;18.30;99.90;;;;;;4986711;28;20041;-78